Impacts TAF Board
For situational awareness. Not to be used for flight planning purposes.
IDs:

KIAD - Washington/Dulles In, VA, US

Issued at 0540 UTC 24 Jan 2019
Updated at 0637 UTC 24 Jan 2019
Potential Impact None Slight Moderate High
Time<<24/19Z 24/20Z 24/21Z 24/22Z 24/23Z 25/00Z 25/01Z 25/02Z 25/03Z 25/04Z 25/05Z 25/06Z 25/07Z>>
Type PRVL PRVL PRVL PRVL PRVL PRVL PRVL PRVL PRVL PRVL PRVL PRVL PRVL
VIS >6 >6 >6 >6 >6 >6 >6 >6 >6 >6 >6 >6 >6
CIG 35 35 35 35 35 35 35 35 35 35 35 35 35
Cover OVC OVC OVC OVC OVC OVC OVC OVC OVC OVC OVC OVC OVC
FltCat VFR VFR VFR VFR VFR VFR VFR VFR VFR VFR VFR VFR VFR
WX -- -- -- -- -- -- -- -- -- -- -- -- --
WDir 310 310 310 310 310 310 310 310 310 310 310 310 310
WSpd 17 17 17 17 17 17 17 17 17 17 17 17 17
WGst 34 34 34 34 34 34 34 34 34 34 34 34 34
Raw TAF
KIAD 240540Z 2406/2512 18009KT 6SM -RA BKN008 OVC025 WS020/18035KT
  FM240900 18016G33KT 3SM -RA BKN010 OVC025 WS020/19045KT
  FM241100 18019G40KT 3SM -RA BKN010 OVC025
  FM241300 21013G29KT 2SM +RA BKN010 OVC025
  FM241500 29014G30KT 1 1/2SM -RA BKN015 OVC025 WS020/31040KT
  FM241800 31017G34KT P6SM SCT025 OVC035
  FM251000 24008KT P6SM FEW045 SCT250


METAR Board
Radar Display
Forecast Discussion
For situational awareness. Not to be used for flight planning purposes.